sensor_id;sensor_type;location;lat;lon;timestamp;pressure;altitude;pressure_sealevel;temperature;humidity
20228;BME280;12195;55.790;37.572;2022-12-10T00:00:07;99704.37;;;-0.52;75.73
20228;BME280;12195;55.790;37.572;2022-12-10T00:02:40;99711.28;;;-0.54;75.76
20228;BME280;12195;55.790;37.572;2022-12-10T00:05:12;99716.45;;;-0.55;75.96
20228;BME280;12195;55.790;37.572;2022-12-10T00:07:45;99718.22;;;-0.59;76.08
20228;BME280;12195;55.790;37.572;2022-12-10T00:10:17;99708.74;;;-0.58;76.24
20228;BME280;12195;55.790;37.572;2022-12-10T00:12:49;99710.48;;;-0.59;76.39
20228;BME280;12195;55.790;37.572;2022-12-10T00:15:21;99707.86;;;-0.56;76.21
20228;BME280;12195;55.790;37.572;2022-12-10T00:17:54;99716.44;;;-0.54;76.18
20228;BME280;12195;55.790;37.572;2022-12-10T00:20:26;99717.32;;;-0.55;76.25
20228;BME280;12195;55.790;37.572;2022-12-10T00:22:58;99719.89;;;-0.53;76.15
20228;BME280;12195;55.790;37.572;2022-12-10T00:25:31;99697.52;;;-0.53;76.24
20228;BME280;12195;55.790;37.572;2022-12-10T00:28:04;99694.12;;;-0.55;76.32
20228;BME280;12195;55.790;37.572;2022-12-10T00:30:37;99698.38;;;-0.51;76.39
20228;BME280;12195;55.790;37.572;2022-12-10T00:33:10;99694.94;;;-0.53;76.43
20228;BME280;12195;55.790;37.572;2022-12-10T00:35:43;99693.22;;;-0.51;76.58
20228;BME280;12195;55.790;37.572;2022-12-10T00:38:15;99698.36;;;-0.49;76.50
20228;BME280;12195;55.790;37.572;2022-12-10T00:40:47;99703.47;;;-0.48;76.60
20228;BME280;12195;55.790;37.572;2022-12-10T00:43:20;99692.31;;;-0.47;76.55
20228;BME280;12195;55.790;37.572;2022-12-10T00:45:52;99683.70;;;-0.46;76.75
20228;BME280;12195;55.790;37.572;2022-12-10T00:48:25;99687.98;;;-0.45;76.74
20228;BME280;12195;55.790;37.572;2022-12-10T00:51:00;99684.52;;;-0.44;76.84
20228;BME280;12195;55.790;37.572;2022-12-10T00:53:34;99686.19;;;-0.40;76.71
20228;BME280;12195;55.790;37.572;2022-12-10T00:56:09;99682.72;;;-0.37;76.69
20228;BME280;12195;55.790;37.572;2022-12-10T00:58:43;99678.44;;;-0.37;76.69
20228;BME280;12195;55.790;37.572;2022-12-10T01:01:24;99691.31;;;-0.35;76.55
20228;BME280;12195;55.790;37.572;2022-12-10T01:04:05;99693.89;;;-0.35;76.41
20228;BME280;12195;55.790;37.572;2022-12-10T01:06:34;99694.75;;;-0.35;76.24
20228;BME280;12195;55.790;37.572;2022-12-10T01:09:08;99670.70;;;-0.37;76.32
20228;BME280;12195;55.790;37.572;2022-12-10T01:11:43;99659.56;;;-0.39;76.65
20228;BME280;12195;55.790;37.572;2022-12-10T01:14:18;99647.48;;;-0.37;76.68
20228;BME280;12195;55.790;37.572;2022-12-10T01:16:56;99662.94;;;-0.35;76.89
20228;BME280;12195;55.790;37.572;2022-12-10T01:19:29;99656.08;;;-0.35;76.95
20228;BME280;12195;55.790;37.572;2022-12-10T01:22:03;99653.44;;;-0.32;76.96
20228;BME280;12195;55.790;37.572;2022-12-10T01:24:38;99647.37;;;-0.28;76.76
20228;BME280;12195;55.790;37.572;2022-12-10T01:27:10;99643.94;;;-0.27;76.68
20228;BME280;12195;55.790;37.572;2022-12-10T01:29:42;99648.23;;;-0.27;76.80
20228;BME280;12195;55.790;37.572;2022-12-10T01:32:14;99649.92;;;-0.25;77.08
20228;BME280;12195;55.790;37.572;2022-12-10T01:34:47;99643.86;;;-0.22;77.07
20228;BME280;12195;55.790;37.572;2022-12-10T01:37:20;99653.28;;;-0.20;77.26
20228;BME280;12195;55.790;37.572;2022-12-10T01:39:53;99654.95;;;-0.16;77.18
20228;BME280;12195;55.790;37.572;2022-12-10T01:42:26;99652.34;;;-0.13;77.16
20228;BME280;12195;55.790;37.572;2022-12-10T01:45:03;99640.27;;;-0.11;77.28
20228;BME280;12195;55.790;37.572;2022-12-10T01:47:34;99641.11;;;-0.09;77.28
20228;BME280;12195;55.790;37.572;2022-12-10T01:50:07;99644.55;;;-0.08;77.32
20228;BME280;12195;55.790;37.572;2022-12-10T01:52:40;99641.89;;;-0.04;77.40
20228;BME280;12195;55.790;37.572;2022-12-10T01:55:41;99645.09;;;0.13;77.79
20228;BME280;12195;55.790;37.572;2022-12-10T01:58:09;99653.83;;;0.05;77.33
20228;BME280;12195;55.790;37.572;2022-12-10T02:01:31;99647.79;;;0.06;77.07
20228;BME280;12195;55.790;37.572;2022-12-10T02:03:36;99652.92;;;0.09;77.20
20228;BME280;12195;55.790;37.572;2022-12-10T02:06:17;99659.78;;;0.10;77.02
20228;BME280;12195;55.790;37.572;2022-12-10T02:11:46;99645.98;;;0.13;77.12
20228;BME280;12195;55.790;37.572;2022-12-10T02:14:44;99651.12;;;0.14;77.31
20228;BME280;12195;55.790;37.572;2022-12-10T02:17:26;99645.02;;;0.20;77.41
20228;BME280;12195;55.790;37.572;2022-12-10T02:20:11;99650.98;;;0.23;76.99
20228;BME280;12195;55.790;37.572;2022-12-10T02:22:46;99664.75;;;0.24;77.09
20228;BME280;12195;55.790;37.572;2022-12-10T02:25:15;99660.41;;;0.26;77.12
20228;BME280;12195;55.790;37.572;2022-12-10T02:30:47;99652.63;;;0.29;77.12
20228;BME280;12195;55.790;37.572;2022-12-10T02:33:21;99632.79;;;0.31;76.97
20228;BME280;12195;55.790;37.572;2022-12-10T02:35:56;99644.84;;;0.32;76.94
20228;BME280;12195;55.790;37.572;2022-12-10T02:38:34;99648.28;;;0.31;77.05
20228;BME280;12195;55.790;37.572;2022-12-10T02:41:10;99646.55;;;0.33;76.97
20228;BME280;12195;55.790;37.572;2022-12-10T02:43:44;99640.50;;;0.34;76.93
20228;BME280;12195;55.790;37.572;2022-12-10T02:46:18;99631.87;;;0.35;76.91
20228;BME280;12195;55.790;37.572;2022-12-10T02:48:52;99624.97;;;0.37;76.89
20228;BME280;12195;55.790;37.572;2022-12-10T02:51:25;99624.08;;;0.38;76.82
20228;BME280;12195;55.790;37.572;2022-12-10T02:54:03;99626.65;;;0.39;76.80
20228;BME280;12195;55.790;37.572;2022-12-10T02:56:47;99630.95;;;0.39;76.56
20228;BME280;12195;55.790;37.572;2022-12-10T02:59:28;99618.02;;;0.40;76.52
20228;BME280;12195;55.790;37.572;2022-12-10T03:02:16;99623.20;;;0.39;76.63
20228;BME280;12195;55.790;37.572;2022-12-10T03:04:57;99618.90;;;0.39;76.52
20228;BME280;12195;55.790;37.572;2022-12-10T03:07:49;99616.32;;;0.39;76.54
20228;BME280;12195;55.790;37.572;2022-12-10T03:13:16;99609.44;;;0.40;76.73
20228;BME280;12195;55.790;37.572;2022-12-10T03:15:51;99611.14;;;0.41;76.68
20228;BME280;12195;55.790;37.572;2022-12-10T03:18:27;99614.58;;;0.41;76.68
20228;BME280;12195;55.790;37.572;2022-12-10T03:21:03;99609.36;;;0.43;76.51
20228;BME280;12195;55.790;37.572;2022-12-10T03:23:38;99620.58;;;0.42;76.41
20228;BME280;12195;55.790;37.572;2022-12-10T03:26:12;99618.88;;;0.41;75.95
20228;BME280;12195;55.790;37.572;2022-12-10T03:28:50;99620.62;;;0.39;76.29
20228;BME280;12195;55.790;37.572;2022-12-10T03:31:23;99618.92;;;0.38;76.42
20228;BME280;12195;55.790;37.572;2022-12-10T03:33:55;99608.59;;;0.38;76.62
20228;BME280;12195;55.790;37.572;2022-12-10T03:36:29;99607.69;;;0.40;76.73
20228;BME280;12195;55.790;37.572;2022-12-10T03:39:02;99606.86;;;0.40;76.66
20228;BME280;12195;55.790;37.572;2022-12-10T03:41:35;99607.67;;;0.42;76.70
20228;BME280;12195;55.790;37.572;2022-12-10T03:44:07;99613.68;;;0.44;76.71
20228;BME280;12195;55.790;37.572;2022-12-10T03:46:40;99612.78;;;0.46;76.69
20228;BME280;12195;55.790;37.572;2022-12-10T03:49:12;99621.35;;;0.47;76.73
20228;BME280;12195;55.790;37.572;2022-12-10T03:51:44;99629.95;;;0.49;76.75
20228;BME280;12195;55.790;37.572;2022-12-10T03:54:16;99629.06;;;0.50;76.21
20228;BME280;12195;55.790;37.572;2022-12-10T03:56:48;99621.34;;;0.48;76.32
20228;BME280;12195;55.790;37.572;2022-12-10T03:59:20;99617.03;;;0.49;76.31
20228;BME280;12195;55.790;37.572;2022-12-10T04:01:52;99613.56;;;0.50;76.37
20228;BME280;12195;55.790;37.572;2022-12-10T04:04:25;99610.98;;;0.50;76.46
20228;BME280;12195;55.790;37.572;2022-12-10T04:06:57;99608.38;;;0.51;76.56
20228;BME280;12195;55.790;37.572;2022-12-10T04:09:30;99604.01;;;0.55;76.47
20228;BME280;12195;55.790;37.572;2022-12-10T04:12:01;99611.75;;;0.55;76.28
20228;BME280;12195;55.790;37.572;2022-12-10T04:14:35;99608.27;;;0.57;76.21
20228;BME280;12195;55.790;37.572;2022-12-10T04:17:24;99612.59;;;0.57;76.09
20228;BME280;12195;55.790;37.572;2022-12-10T04:19:57;99616.02;;;0.57;76.21
20228;BME280;12195;55.790;37.572;2022-12-10T04:22:31;99617.74;;;0.58;76.22
20228;BME280;12195;55.790;37.572;2022-12-10T04:25:22;99621.14;;;0.60;76.25
20228;BME280;12195;55.790;37.572;2022-12-10T04:28:11;99626.28;;;0.62;76.02
20228;BME280;12195;55.790;37.572;2022-12-10T04:30:44;99622.81;;;0.63;76.08
20228;BME280;12195;55.790;37.572;2022-12-10T04:33:16;99629.71;;;0.64;75.88
20228;BME280;12195;55.790;37.572;2022-12-10T04:35:48;99626.22;;;0.66;75.74
20228;BME280;12195;55.790;37.572;2022-12-10T04:38:20;99631.39;;;0.66;75.73
20228;BME280;12195;55.790;37.572;2022-12-10T04:40:53;99633.09;;;0.67;75.74
20228;BME280;12195;55.790;37.572;2022-12-10T04:43:25;99627.05;;;0.67;75.77
20228;BME280;12195;55.790;37.572;2022-12-10T04:45:58;99626.17;;;0.68;75.67
20228;BME280;12195;55.790;37.572;2022-12-10T04:48:30;99621.08;;;0.65;75.67
20228;BME280;12195;55.790;37.572;2022-12-10T04:51:02;99620.19;;;0.66;75.67
20228;BME280;12195;55.790;37.572;2022-12-10T04:53:34;99621.89;;;0.67;75.64
20228;BME280;12195;55.790;37.572;2022-12-10T04:56:08;99622.75;;;0.67;75.25
20228;BME280;12195;55.790;37.572;2022-12-10T04:58:40;99624.45;;;0.68;75.41
20228;BME280;12195;55.790;37.572;2022-12-10T05:01:12;99621.84;;;0.70;75.44
20228;BME280;12195;55.790;37.572;2022-12-10T05:03:45;99602.90;;;0.69;75.56
20228;BME280;12195;55.790;37.572;2022-12-10T05:06:20;99608.02;;;0.72;75.52
20228;BME280;12195;55.790;37.572;2022-12-10T05:08:53;99605.42;;;0.74;75.32
20228;BME280;12195;55.790;37.572;2022-12-10T05:11:27;99601.14;;;0.73;75.44
20228;BME280;12195;55.790;37.572;2022-12-10T05:14:00;99607.11;;;0.75;75.49
20228;BME280;12195;55.790;37.572;2022-12-10T05:16:34;99603.64;;;0.76;75.54
20228;BME280;12195;55.790;37.572;2022-12-10T05:19:06;99604.48;;;0.78;75.62
20228;BME280;12195;55.790;37.572;2022-12-10T05:21:38;99608.48;;;0.95;75.94
20228;BME280;12195;55.790;37.572;2022-12-10T05:24:28;99607.81;;;0.84;75.40
20228;BME280;12195;55.790;37.572;2022-12-10T05:27:01;99612.11;;;0.84;75.09
20228;BME280;12195;55.790;37.572;2022-12-10T05:29:34;99609.61;;;0.81;75.25
20228;BME280;12195;55.790;37.572;2022-12-10T05:32:08;99612.20;;;0.81;75.60
20228;BME280;12195;55.790;37.572;2022-12-10T05:34:40;99604.37;;;0.84;75.51
20228;BME280;12195;55.790;37.572;2022-12-10T05:37:12;99604.34;;;0.85;75.80
20228;BME280;12195;55.790;37.572;2022-12-10T05:39:45;99603.43;;;0.88;75.62
20228;BME280;12195;55.790;37.572;2022-12-10T05:42:19;99608.62;;;0.86;75.34
20228;BME280;12195;55.790;37.572;2022-12-10T05:44:51;99614.66;;;0.87;75.38
20228;BME280;12195;55.790;37.572;2022-12-10T05:47:23;99615.55;;;0.86;75.45
20228;BME280;12195;55.790;37.572;2022-12-10T05:49:56;99620.69;;;0.87;75.16
20228;BME280;12195;55.790;37.572;2022-12-10T05:52:28;99618.13;;;0.86;75.28
20228;BME280;12195;55.790;37.572;2022-12-10T05:55:00;99624.12;;;0.86;75.31
20228;BME280;12195;55.790;37.572;2022-12-10T05:57:33;99618.08;;;0.89;75.23
20228;BME280;12195;55.790;37.572;2022-12-10T06:00:06;99615.44;;;0.90;75.47
20228;BME280;12195;55.790;37.572;2022-12-10T06:02:40;99614.61;;;0.90;75.36
20228;BME280;12195;55.790;37.572;2022-12-10T06:05:13;99611.98;;;0.93;75.24
20228;BME280;12195;55.790;37.572;2022-12-10T06:07:45;99605.92;;;0.94;75.26
20228;BME280;12195;55.790;37.572;2022-12-10T06:10:17;99603.31;;;0.95;75.30
20228;BME280;12195;55.790;37.572;2022-12-10T06:12:50;99603.30;;;0.97;75.24
20228;BME280;12195;55.790;37.572;2022-12-10T06:15:22;99603.22;;;1.00;75.16
20228;BME280;12195;55.790;37.572;2022-12-10T06:17:55;99600.62;;;1.00;75.19
20228;BME280;12195;55.790;37.572;2022-12-10T06:20:28;99598.89;;;1.02;75.17
20228;BME280;12195;55.790;37.572;2022-12-10T06:23:01;99600.59;;;1.03;74.94
20228;BME280;12195;55.790;37.572;2022-12-10T06:25:33;99600.56;;;1.04;75.16
20228;BME280;12195;55.790;37.572;2022-12-10T06:28:06;99603.13;;;1.06;75.12
20228;BME280;12195;55.790;37.572;2022-12-10T06:30:38;99598.84;;;1.05;75.12
20228;BME280;12195;55.790;37.572;2022-12-10T06:33:10;99598.76;;;1.08;75.02
20228;BME280;12195;55.790;37.572;2022-12-10T06:35:43;99597.02;;;1.10;75.15
20228;BME280;12195;55.790;37.572;2022-12-10T06:38:16;99597.83;;;1.12;75.12
20228;BME280;12195;55.790;37.572;2022-12-10T06:40:48;99589.13;;;1.16;75.12
20228;BME280;12195;55.790;37.572;2022-12-10T06:43:21;99587.36;;;1.19;75.42
20228;BME280;12195;55.790;37.572;2022-12-10T06:45:53;99579.50;;;1.24;75.39
20228;BME280;12195;55.790;37.572;2022-12-10T06:48:26;99584.56;;;1.30;75.59
20228;BME280;12195;55.790;37.572;2022-12-10T06:50:59;99591.30;;;1.37;75.18
20228;BME280;12195;55.790;37.572;2022-12-10T06:53:34;99592.94;;;1.41;75.18
20228;BME280;12195;55.790;37.572;2022-12-10T06:56:07;99590.30;;;1.44;75.12
20228;BME280;12195;55.790;37.572;2022-12-10T06:58:42;99595.42;;;1.47;75.03
20228;BME280;12195;55.790;37.572;2022-12-10T07:01:20;99592.70;;;1.53;75.10
20228;BME280;12195;55.790;37.572;2022-12-10T07:03:55;99591.75;;;1.57;74.81
20228;BME280;12195;55.790;37.572;2022-12-10T07:06:28;99589.11;;;1.60;74.70
20228;BME280;12195;55.790;37.572;2022-12-10T07:09:03;99587.33;;;1.62;74.52
20228;BME280;12195;55.790;37.572;2022-12-10T07:11:36;99595.06;;;1.63;74.67
20228;BME280;12195;55.790;37.572;2022-12-10T07:14:16;99586.38;;;1.66;74.55
20228;BME280;12195;55.790;37.572;2022-12-10T07:16:49;99588.91;;;1.69;74.24
20228;BME280;12195;55.790;37.572;2022-12-10T07:19:22;99591.44;;;1.72;74.31
20228;BME280;12195;55.790;37.572;2022-12-10T07:21:55;99589.69;;;1.72;74.41
20228;BME280;12195;55.790;37.572;2022-12-10T07:24:29;99587.91;;;1.76;74.21
20228;BME280;12195;55.790;37.572;2022-12-10T07:27:06;99596.47;;;1.78;74.25
20228;BME280;12195;55.790;37.572;2022-12-10T07:29:39;99600.70;;;1.82;74.43
20228;BME280;12195;55.790;37.572;2022-12-10T07:32:12;99593.77;;;1.84;74.41
20228;BME280;12195;55.790;37.572;2022-12-10T07:34:44;99595.47;;;1.85;74.27
20228;BME280;12195;55.790;37.572;2022-12-10T07:37:17;99595.47;;;1.85;73.99
20228;BME280;12195;55.790;37.572;2022-12-10T07:39:49;99592.84;;;1.86;74.17
20228;BME280;12195;55.790;37.572;2022-12-10T07:42:21;99598.80;;;1.90;74.74
20228;BME280;12195;55.790;37.572;2022-12-10T07:44:54;99593.56;;;1.93;73.86
20228;BME280;12195;55.790;37.572;2022-12-10T07:47:26;99591.06;;;1.88;73.67
20228;BME280;12195;55.790;37.572;2022-12-10T07:49:58;99585.98;;;1.85;73.93
20228;BME280;12195;55.790;37.572;2022-12-10T07:52:31;99590.29;;;1.85;74.26
20228;BME280;12195;55.790;37.572;2022-12-10T07:55:04;99586.92;;;1.81;74.02
20228;BME280;12195;55.790;37.572;2022-12-10T07:57:36;99587.76;;;1.82;74.32
20228;BME280;12195;55.790;37.572;2022-12-10T08:00:10;99588.70;;;1.78;74.36
20228;BME280;12195;55.790;37.572;2022-12-10T08:02:43;99584.48;;;1.74;74.49
20228;BME280;12195;55.790;37.572;2022-12-10T08:05:16;99589.63;;;1.75;74.59
20228;BME280;12195;55.790;37.572;2022-12-10T08:07:49;99582.70;;;1.77;74.95
20228;BME280;12195;55.790;37.572;2022-12-10T08:10:23;99575.77;;;1.78;75.14
20228;BME280;12195;55.790;37.572;2022-12-10T08:12:55;99573.13;;;1.81;74.96
20228;BME280;12195;55.790;37.572;2022-12-10T08:15:27;99575.66;;;1.84;74.94
20228;BME280;12195;55.790;37.572;2022-12-10T08:18:00;99579.94;;;1.85;74.74
20228;BME280;12195;55.790;37.572;2022-12-10T08:20:37;99577.32;;;1.86;74.56
20228;BME280;12195;55.790;37.572;2022-12-10T08:23:11;99575.50;;;1.90;74.69
20228;BME280;12195;55.790;37.572;2022-12-10T08:25:43;99580.59;;;1.94;74.68
20228;BME280;12195;55.790;37.572;2022-12-10T08:28:16;99590.83;;;1.99;74.65
20228;BME280;12195;55.790;37.572;2022-12-10T08:30:48;99580.44;;;2.00;74.54
20228;BME280;12195;55.790;37.572;2022-12-10T08:33:23;99582.20;;;2.00;74.34
20228;BME280;12195;55.790;37.572;2022-12-10T08:35:59;99589.87;;;2.03;74.61
20228;BME280;12195;55.790;37.572;2022-12-10T08:38:32;99587.25;;;2.04;74.38
20228;BME280;12195;55.790;37.572;2022-12-10T08:41:10;99576.84;;;2.07;74.41
20228;BME280;12195;55.790;37.572;2022-12-10T08:43:42;99568.14;;;2.10;74.50
20228;BME280;12195;55.790;37.572;2022-12-10T08:46:15;99574.92;;;2.15;74.63
20228;BME280;12195;55.790;37.572;2022-12-10T08:48:47;99562.94;;;2.11;73.67
20228;BME280;12195;55.790;37.572;2022-12-10T08:51:20;99565.55;;;2.10;74.28
20228;BME280;12195;55.790;37.572;2022-12-10T08:53:53;99566.45;;;2.09;74.18
20228;BME280;12195;55.790;37.572;2022-12-10T08:56:26;99568.14;;;2.10;74.46
20228;BME280;12195;55.790;37.572;2022-12-10T08:58:59;99568.17;;;2.08;74.43
20228;BME280;12195;55.790;37.572;2022-12-10T09:01:33;99567.34;;;2.08;74.84
20228;BME280;12195;55.790;37.572;2022-12-10T09:04:05;99559.55;;;2.09;75.18
20228;BME280;12195;55.790;37.572;2022-12-10T09:06:39;99561.24;;;2.10;74.78
20228;BME280;12195;55.790;37.572;2022-12-10T09:09:12;99563.77;;;2.13;74.98
20228;BME280;12195;55.790;37.572;2022-12-10T09:11:45;99565.49;;;2.13;75.15
20228;BME280;12195;55.790;37.572;2022-12-10T09:14:18;99562.88;;;2.14;75.39
20228;BME280;12195;55.790;37.572;2022-12-10T09:16:50;99569.74;;;2.15;75.22
20228;BME280;12195;55.790;37.572;2022-12-10T09:19:23;99569.84;;;2.11;74.84
20228;BME280;12195;55.790;37.572;2022-12-10T09:21:57;99567.34;;;2.08;74.74
20228;BME280;12195;55.790;37.572;2022-12-10T09:24:30;99567.34;;;2.08;75.35
20228;BME280;12195;55.790;37.572;2022-12-10T09:27:03;99566.45;;;2.09;75.29
20228;BME280;12195;55.790;37.572;2022-12-10T09:29:36;99569.84;;;2.11;75.40
20228;BME280;12195;55.790;37.572;2022-12-10T09:32:09;99559.03;;;2.30;76.01
20228;BME280;12195;55.790;37.572;2022-12-10T09:34:41;99558.42;;;2.19;75.74
20228;BME280;12195;55.790;37.572;2022-12-10T09:37:14;99558.46;;;2.18;75.62
20228;BME280;12195;55.790;37.572;2022-12-10T09:39:47;99555.88;;;2.18;75.74
20228;BME280;12195;55.790;37.572;2022-12-10T09:42:31;99559.36;;;2.17;75.55
20228;BME280;12195;55.790;37.572;2022-12-10T09:45:24;99558.52;;;2.15;75.56
20228;BME280;12195;55.790;37.572;2022-12-10T09:47:59;99555.13;;;2.13;75.54
20228;BME280;12195;55.790;37.572;2022-12-10T09:50:33;99555.13;;;2.13;75.86
20228;BME280;12195;55.790;37.572;2022-12-10T09:53:07;99555.13;;;2.13;76.01
20228;BME280;12195;55.790;37.572;2022-12-10T09:55:49;99549.06;;;2.14;75.79
20228;BME280;12195;55.790;37.572;2022-12-10T09:58:21;99547.37;;;2.13;75.24
20228;BME280;12195;55.790;37.572;2022-12-10T10:00:57;99548.27;;;2.12;75.10
20228;BME280;12195;55.790;37.572;2022-12-10T10:03:37;99543.95;;;2.11;75.39
20228;BME280;12195;55.790;37.572;2022-12-10T10:06:10;99541.33;;;2.12;75.91
20228;BME280;12195;55.790;37.572;2022-12-10T10:08:57;99541.27;;;2.15;76.19
20228;BME280;12195;55.790;37.572;2022-12-10T10:11:34;99542.03;;;2.19;75.96
20228;BME280;12195;55.790;37.572;2022-12-10T10:14:13;99536.78;;;2.22;75.86
20228;BME280;12195;55.790;37.572;2022-12-10T10:17:00;99533.30;;;2.23;75.82
20228;BME280;12195;55.790;37.572;2022-12-10T10:19:31;99532.38;;;2.25;75.84
20228;BME280;12195;55.790;37.572;2022-12-10T10:22:08;99540.08;;;2.28;75.88
20228;BME280;12195;55.790;37.572;2022-12-10T10:24:47;99534.89;;;2.28;75.69
20228;BME280;12195;55.790;37.572;2022-12-10T10:27:24;99533.14;;;2.30;75.73
20228;BME280;12195;55.790;37.572;2022-12-10T10:30:00;99539.14;;;2.31;76.05
20228;BME280;12195;55.790;37.572;2022-12-10T10:37:58;99531.51;;;2.26;75.34
20228;BME280;12195;55.790;37.572;2022-12-10T10:43:27;99515.11;;;2.26;75.75
20228;BME280;12195;55.790;37.572;2022-12-10T10:46:02;99520.25;;;2.27;75.81
20228;BME280;12195;55.790;37.572;2022-12-10T10:48:37;99513.34;;;2.28;75.75
20228;BME280;12195;55.790;37.572;2022-12-10T10:53:55;99506.44;;;2.27;75.83
20228;BME280;12195;55.790;37.572;2022-12-10T10:56:37;99496.05;;;2.28;75.91
20228;BME280;12195;55.790;37.572;2022-12-10T11:01:55;99488.17;;;2.33;76.30
20228;BME280;12195;55.790;37.572;2022-12-10T11:04:36;99488.97;;;2.35;76.27
20228;BME280;12195;55.790;37.572;2022-12-10T11:07:15;99484.66;;;2.35;76.03
20228;BME280;12195;55.790;37.572;2022-12-10T11:09:41;99484.69;;;2.34;75.91
20228;BME280;12195;55.790;37.572;2022-12-10T11:12:21;99481.30;;;2.32;75.69
20228;BME280;12195;55.790;37.572;2022-12-10T11:14:54;99486.90;;;2.49;76.32
20228;BME280;12195;55.790;37.572;2022-12-10T11:17:27;99470.98;;;2.30;75.73
20228;BME280;12195;55.790;37.572;2022-12-10T11:22:56;99470.19;;;2.27;76.09
20228;BME280;12195;55.790;37.572;2022-12-10T11:37:32;99464.00;;;2.32;77.09
20228;BME280;12195;55.790;37.572;2022-12-10T11:40:33;99464.00;;;2.32;77.01
20228;BME280;12195;55.790;37.572;2022-12-10T11:43:17;99461.41;;;2.32;76.74
20228;BME280;12195;55.790;37.572;2022-12-10T11:46:15;99456.27;;;2.31;76.79
20228;BME280;12195;55.790;37.572;2022-12-10T11:49:07;99451.26;;;2.25;76.66
20228;BME280;12195;55.790;37.572;2022-12-10T11:51:40;99451.33;;;2.22;76.70
20228;BME280;12195;55.790;37.572;2022-12-10T11:54:33;99438.45;;;2.19;76.62
20228;BME280;12195;55.790;37.572;2022-12-10T12:00:18;99442.11;;;2.12;77.42
20228;BME280;12195;55.790;37.572;2022-12-10T12:03:34;99438.69;;;2.10;77.09
20228;BME280;12195;55.790;37.572;2022-12-10T12:08:41;99446.11;;;2.23;77.76
20228;BME280;12195;55.790;37.572;2022-12-10T12:11:23;99439.59;;;2.09;77.58
20228;BME280;12195;55.790;37.572;2022-12-10T12:19:28;99432.69;;;2.09;78.22
20228;BME280;12195;55.790;37.572;2022-12-10T12:22:05;99432.61;;;2.11;77.93
20228;BME280;12195;55.790;37.572;2022-12-10T12:24:37;99424.05;;;2.09;78.23
20228;BME280;12195;55.790;37.572;2022-12-10T12:27:34;99435.30;;;2.08;78.21
20228;BME280;12195;55.790;37.572;2022-12-10T12:38:23;99422.46;;;2.03;78.41
20228;BME280;12195;55.790;37.572;2022-12-10T12:41:01;99421.67;;;2.01;78.55
20228;BME280;12195;55.790;37.572;2022-12-10T12:44:26;99417.31;;;2.02;78.61
20228;BME280;12195;55.790;37.572;2022-12-10T12:46:20;99422.50;;;2.02;78.79
20228;BME280;12195;55.790;37.572;2022-12-10T12:48:53;99415.63;;;2.01;78.67
20228;BME280;12195;55.790;37.572;2022-12-10T12:54:22;99419.98;;;1.99;78.76
20228;BME280;12195;55.790;37.572;2022-12-10T12:57:10;99420.88;;;1.98;78.83
20228;BME280;12195;55.790;37.572;2022-12-10T12:59:44;99417.48;;;1.96;78.77
20228;BME280;12195;55.790;37.572;2022-12-10T13:05:27;99417.52;;;1.94;79.12
20228;BME280;12195;55.790;37.572;2022-12-10T13:14:04;99427.11;;;1.91;78.99
20228;BME280;12195;55.790;37.572;2022-12-10T13:22:05;99420.17;;;1.91;79.35
20228;BME280;12195;55.790;37.572;2022-12-10T13:27:15;99410.75;;;1.89;79.29
20228;BME280;12195;55.790;37.572;2022-12-10T13:33:17;99414.30;;;1.85;79.32
20228;BME280;12195;55.790;37.572;2022-12-10T13:35:58;99405.74;;;1.83;79.46
20228;BME280;12195;55.790;37.572;2022-12-10T13:38:39;99400.60;;;1.81;79.67
20228;BME280;12195;55.790;37.572;2022-12-10T13:41:08;99405.78;;;1.81;79.79
20228;BME280;12195;55.790;37.572;2022-12-10T13:44:00;99405.78;;;1.81;79.87
20228;BME280;12195;55.790;37.572;2022-12-10T13:46:53;99406.61;;;1.82;80.00
20228;BME280;12195;55.790;37.572;2022-12-10T13:49:31;99398.84;;;1.82;80.00
20228;BME280;12195;55.790;37.572;2022-12-10T13:52:06;99404.02;;;1.82;80.11
20228;BME280;12195;55.790;37.572;2022-12-10T14:06:25;99398.78;;;1.85;80.17
20228;BME280;12195;55.790;37.572;2022-12-10T14:11:46;99397.08;;;1.84;80.28
20228;BME280;12195;55.790;37.572;2022-12-10T14:14:17;99391.91;;;1.84;80.25
20228;BME280;12195;55.790;37.572;2022-12-10T14:16:49;99388.42;;;1.85;80.22
20228;BME280;12195;55.790;37.572;2022-12-10T14:19:26;99384.15;;;1.84;80.26
20228;BME280;12195;55.790;37.572;2022-12-10T14:22:05;99382.45;;;1.83;80.22
20228;BME280;12195;55.790;37.572;2022-12-10T14:24:39;99381.63;;;1.81;80.28
20228;BME280;12195;55.790;37.572;2022-12-10T14:27:19;99379.04;;;1.81;80.16
20228;BME280;12195;55.790;37.572;2022-12-10T14:29:58;99373.10;;;1.77;80.16
20228;BME280;12195;55.790;37.572;2022-12-10T14:32:34;99374.86;;;1.75;80.21
20228;BME280;12195;55.790;37.572;2022-12-10T14:35:14;99367.16;;;1.72;80.14
20228;BME280;12195;55.790;37.572;2022-12-10T14:37:50;99364.64;;;1.71;80.14
20228;BME280;12195;55.790;37.572;2022-12-10T14:40:38;99357.81;;;1.68;80.23
20228;BME280;12195;55.790;37.572;2022-12-10T14:43:24;99354.39;;;1.66;80.13
20228;BME280;12195;55.790;37.572;2022-12-10T14:45:58;99351.05;;;1.63;80.08
20228;BME280;12195;55.790;37.572;2022-12-10T14:48:38;99348.49;;;1.61;80.00
20228;BME280;12195;55.790;37.572;2022-12-10T14:51:13;99346.00;;;1.57;80.15
20228;BME280;12195;55.790;37.572;2022-12-10T14:53:53;99344.31;;;1.56;80.24
20228;BME280;12195;55.790;37.572;2022-12-10T14:56:38;99336.63;;;1.53;80.27
20228;BME280;12195;55.790;37.572;2022-12-10T14:59:11;99332.34;;;1.52;80.41
20228;BME280;12195;55.790;37.572;2022-12-10T15:01:45;99325.45;;;1.52;80.36
20228;BME280;12195;55.790;37.572;2022-12-10T15:04:20;99319.48;;;1.49;80.20
20228;BME280;12195;55.790;37.572;2022-12-10T15:07:00;99308.34;;;1.47;80.20
20228;BME280;12195;55.790;37.572;2022-12-10T15:09:34;99304.89;;;1.46;80.33
20228;BME280;12195;55.790;37.572;2022-12-10T15:12:19;99304.92;;;1.45;80.44
20228;BME280;12195;55.790;37.572;2022-12-10T15:14:48;99301.47;;;1.46;80.39